sensor_id;sensor_type;location;lat;lon;timestamp;P1;durP1;ratioP1;P2;durP2;ratioP2
72920;SDS011;61064;51.654;5.476;2022-09-09T00:04:34;5.77;;;1.40;;
72920;SDS011;61064;51.654;5.476;2022-09-09T00:07:03;7.90;;;2.65;;
72920;SDS011;61064;51.654;5.476;2022-09-09T00:15:13;4.57;;;1.17;;
72920;SDS011;61064;51.654;5.476;2022-09-09T00:17:48;6.50;;;1.60;;
72920;SDS011;61064;51.654;5.476;2022-09-09T00:20:35;6.28;;;1.50;;
72920;SDS011;61064;51.654;5.476;2022-09-09T00:23:24;5.93;;;1.50;;
72920;SDS011;61064;51.654;5.476;2022-09-09T00:28:19;5.73;;;1.47;;
72920;SDS011;61064;51.654;5.476;2022-09-09T00:30:48;5.85;;;1.48;;
72920;SDS011;61064;51.654;5.476;2022-09-09T00:33:14;6.03;;;1.50;;
72920;SDS011;61064;51.654;5.476;2022-09-09T00:35:54;6.30;;;1.40;;
72920;SDS011;61064;51.654;5.476;2022-09-09T00:38:24;7.70;;;1.67;;
72920;SDS011;61064;51.654;5.476;2022-09-09T00:43:32;5.65;;;1.50;;
72920;SDS011;61064;51.654;5.476;2022-09-09T00:52:03;6.57;;;1.40;;
72920;SDS011;61064;51.654;5.476;2022-09-09T00:54:37;4.90;;;1.30;;
72920;SDS011;61064;51.654;5.476;2022-09-09T01:00:14;5.05;;;1.55;;
72920;SDS011;61064;51.654;5.476;2022-09-09T01:05:20;5.45;;;1.65;;
72920;SDS011;61064;51.654;5.476;2022-09-09T01:07:49;6.70;;;1.40;;
72920;SDS011;61064;51.654;5.476;2022-09-09T01:10:23;8.25;;;1.50;;
72920;SDS011;61064;51.654;5.476;2022-09-09T01:12:58;4.63;;;1.42;;
72920;SDS011;61064;51.654;5.476;2022-09-09T01:15:29;5.97;;;1.58;;
72920;SDS011;61064;51.654;5.476;2022-09-09T01:18:04;6.07;;;1.65;;
72920;SDS011;61064;51.654;5.476;2022-09-09T01:28:39;4.85;;;1.30;;
72920;SDS011;61064;51.654;5.476;2022-09-09T01:31:07;8.70;;;1.60;;
72920;SDS011;61064;51.654;5.476;2022-09-09T01:33:38;5.00;;;1.40;;
72920;SDS011;61064;51.654;5.476;2022-09-09T01:36:05;5.80;;;1.10;;
72920;SDS011;61064;51.654;5.476;2022-09-09T01:38:34;4.97;;;1.27;;
72920;SDS011;61064;51.654;5.476;2022-09-09T01:41:01;5.75;;;1.40;;
72920;SDS011;61064;51.654;5.476;2022-09-09T01:43:26;6.03;;;1.57;;
72920;SDS011;61064;51.654;5.476;2022-09-09T01:45:53;4.68;;;1.23;;
72920;SDS011;61064;51.654;5.476;2022-09-09T01:48:29;5.85;;;1.50;;
72920;SDS011;61064;51.654;5.476;2022-09-09T01:50:55;6.05;;;1.50;;
72920;SDS011;61064;51.654;5.476;2022-09-09T01:53:23;5.25;;;1.40;;
72920;SDS011;61064;51.654;5.476;2022-09-09T02:01:39;5.05;;;1.40;;
72920;SDS011;61064;51.654;5.476;2022-09-09T02:04:27;9.10;;;1.30;;
72920;SDS011;61064;51.654;5.476;2022-09-09T02:10:00;6.38;;;1.67;;
72920;SDS011;61064;51.654;5.476;2022-09-09T02:12:33;7.00;;;1.42;;
72920;SDS011;61064;51.654;5.476;2022-09-09T02:15:06;5.75;;;1.30;;
72920;SDS011;61064;51.654;5.476;2022-09-09T02:17:37;6.87;;;1.70;;
72920;SDS011;61064;51.654;5.476;2022-09-09T02:20:07;6.15;;;1.50;;
72920;SDS011;61064;51.654;5.476;2022-09-09T02:22:37;7.80;;;1.60;;
72920;SDS011;61064;51.654;5.476;2022-09-09T02:25:06;5.70;;;1.80;;
72920;SDS011;61064;51.654;5.476;2022-09-09T02:27:35;7.15;;;1.70;;
72920;SDS011;61064;51.654;5.476;2022-09-09T02:30:01;6.77;;;2.00;;
72920;SDS011;61064;51.654;5.476;2022-09-09T02:32:28;5.53;;;1.50;;
72920;SDS011;61064;51.654;5.476;2022-09-09T02:34:57;6.25;;;1.50;;
72920;SDS011;61064;51.654;5.476;2022-09-09T02:37:28;6.82;;;1.70;;
72920;SDS011;61064;51.654;5.476;2022-09-09T02:40:02;5.70;;;1.63;;
72920;SDS011;61064;51.654;5.476;2022-09-09T02:42:29;8.45;;;1.65;;
72920;SDS011;61064;51.654;5.476;2022-09-09T02:44:55;5.90;;;2.00;;
72920;SDS011;61064;51.654;5.476;2022-09-09T02:47:25;6.33;;;1.60;;
72920;SDS011;61064;51.654;5.476;2022-09-09T02:58:40;6.38;;;1.70;;
72920;SDS011;61064;51.654;5.476;2022-09-09T03:01:06;7.13;;;1.83;;
72920;SDS011;61064;51.654;5.476;2022-09-09T03:03:33;5.65;;;1.80;;
72920;SDS011;61064;51.654;5.476;2022-09-09T03:05:59;8.20;;;2.00;;
72920;SDS011;61064;51.654;5.476;2022-09-09T03:08:30;5.40;;;1.80;;
72920;SDS011;61064;51.654;5.476;2022-09-09T03:10:57;7.32;;;1.95;;
72920;SDS011;61064;51.654;5.476;2022-09-09T03:13:29;9.27;;;2.00;;
72920;SDS011;61064;51.654;5.476;2022-09-09T03:15:59;8.23;;;2.13;;
72920;SDS011;61064;51.654;5.476;2022-09-09T03:18:25;6.40;;;1.77;;
72920;SDS011;61064;51.654;5.476;2022-09-09T03:20:50;8.53;;;1.87;;
72920;SDS011;61064;51.654;5.476;2022-09-09T03:23:16;7.63;;;2.00;;
72920;SDS011;61064;51.654;5.476;2022-09-09T03:25:48;6.30;;;1.80;;
72920;SDS011;61064;51.654;5.476;2022-09-09T03:28:17;9.65;;;2.10;;
72920;SDS011;61064;51.654;5.476;2022-09-09T03:30:43;7.32;;;2.00;;
72920;SDS011;61064;51.654;5.476;2022-09-09T03:33:08;6.47;;;1.73;;
72920;SDS011;61064;51.654;5.476;2022-09-09T03:35:34;9.20;;;2.43;;
72920;SDS011;61064;51.654;5.476;2022-09-09T03:38:02;7.27;;;1.80;;
72920;SDS011;61064;51.654;5.476;2022-09-09T03:40:30;7.13;;;2.10;;
72920;SDS011;61064;51.654;5.476;2022-09-09T03:42:56;8.02;;;2.00;;
72920;SDS011;61064;51.654;5.476;2022-09-09T03:45:21;10.27;;;2.00;;
72920;SDS011;61064;51.654;5.476;2022-09-09T03:47:46;7.43;;;1.90;;
72920;SDS011;61064;51.654;5.476;2022-09-09T03:50:12;8.27;;;2.10;;
72920;SDS011;61064;51.654;5.476;2022-09-09T03:52:38;7.22;;;1.75;;
72920;SDS011;61064;51.654;5.476;2022-09-09T03:55:06;9.00;;;2.67;;
72920;SDS011;61064;51.654;5.476;2022-09-09T03:57:32;7.15;;;1.88;;
72920;SDS011;61064;51.654;5.476;2022-09-09T04:00:01;9.82;;;2.13;;
72920;SDS011;61064;51.654;5.476;2022-09-09T04:02:30;6.57;;;1.80;;
72920;SDS011;61064;51.654;5.476;2022-09-09T04:04:56;8.10;;;2.00;;
72920;SDS011;61064;51.654;5.476;2022-09-09T04:07:21;8.77;;;2.15;;
72920;SDS011;61064;51.654;5.476;2022-09-09T04:09:47;7.53;;;1.83;;
72920;SDS011;61064;51.654;5.476;2022-09-09T04:12:13;9.60;;;2.13;;
72920;SDS011;61064;51.654;5.476;2022-09-09T04:14:39;8.15;;;1.80;;
72920;SDS011;61064;51.654;5.476;2022-09-09T04:17:04;9.27;;;2.03;;
72920;SDS011;61064;51.654;5.476;2022-09-09T04:19:31;7.65;;;2.08;;
72920;SDS011;61064;51.654;5.476;2022-09-09T04:21:57;7.07;;;1.90;;
72920;SDS011;61064;51.654;5.476;2022-09-09T04:24:22;7.13;;;2.00;;
72920;SDS011;61064;51.654;5.476;2022-09-09T04:26:48;10.25;;;2.05;;
72920;SDS011;61064;51.654;5.476;2022-09-09T04:29:14;8.87;;;2.10;;
72920;SDS011;61064;51.654;5.476;2022-09-09T04:31:39;7.03;;;2.10;;
72920;SDS011;61064;51.654;5.476;2022-09-09T04:34:07;7.27;;;1.70;;
72920;SDS011;61064;51.654;5.476;2022-09-09T04:36:33;6.50;;;1.73;;
72920;SDS011;61064;51.654;5.476;2022-09-09T04:39:00;8.10;;;1.80;;
72920;SDS011;61064;51.654;5.476;2022-09-09T04:41:25;8.55;;;1.75;;
72920;SDS011;61064;51.654;5.476;2022-09-09T04:43:51;7.47;;;1.70;;
72920;SDS011;61064;51.654;5.476;2022-09-09T04:46:18;9.20;;;1.80;;
72920;SDS011;61064;51.654;5.476;2022-09-09T04:48:44;6.32;;;1.80;;
72920;SDS011;61064;51.654;5.476;2022-09-09T04:51:11;9.03;;;1.80;;
72920;SDS011;61064;51.654;5.476;2022-09-09T04:53:38;8.38;;;1.58;;
72920;SDS011;61064;51.654;5.476;2022-09-09T04:56:06;11.05;;;2.05;;
72920;SDS011;61064;51.654;5.476;2022-09-09T04:58:37;9.00;;;1.88;;
72920;SDS011;61064;51.654;5.476;2022-09-09T05:01:07;6.47;;;1.57;;
72920;SDS011;61064;51.654;5.476;2022-09-09T05:03:43;7.70;;;1.70;;
72920;SDS011;61064;51.654;5.476;2022-09-09T05:06:11;9.60;;;2.40;;
72920;SDS011;61064;51.654;5.476;2022-09-09T05:08:38;9.93;;;2.22;;
72920;SDS011;61064;51.654;5.476;2022-09-09T05:11:19;11.23;;;2.25;;
72920;SDS011;61064;51.654;5.476;2022-09-09T05:13:46;7.53;;;1.90;;
72920;SDS011;61064;51.654;5.476;2022-09-09T05:16:14;7.50;;;2.15;;
72920;SDS011;61064;51.654;5.476;2022-09-09T05:18:43;9.40;;;2.00;;
72920;SDS011;61064;51.654;5.476;2022-09-09T05:21:10;8.80;;;2.00;;
72920;SDS011;61064;51.654;5.476;2022-09-09T05:23:38;9.38;;;1.95;;
72920;SDS011;61064;51.654;5.476;2022-09-09T05:26:04;6.78;;;1.70;;
72920;SDS011;61064;51.654;5.476;2022-09-09T05:28:30;8.38;;;1.70;;
72920;SDS011;61064;51.654;5.476;2022-09-09T05:31:00;13.03;;;2.20;;
72920;SDS011;61064;51.654;5.476;2022-09-09T05:33:30;7.30;;;1.80;;
72920;SDS011;61064;51.654;5.476;2022-09-09T05:36:18;8.63;;;1.90;;
72920;SDS011;61064;51.654;5.476;2022-09-09T05:38:43;7.25;;;1.88;;
72920;SDS011;61064;51.654;5.476;2022-09-09T05:41:09;10.83;;;1.77;;
72920;SDS011;61064;51.654;5.476;2022-09-09T05:43:38;9.13;;;2.00;;
72920;SDS011;61064;51.654;5.476;2022-09-09T05:46:05;10.73;;;1.90;;
72920;SDS011;61064;51.654;5.476;2022-09-09T05:48:35;13.00;;;1.98;;
72920;SDS011;61064;51.654;5.476;2022-09-09T05:51:03;12.18;;;2.00;;
72920;SDS011;61064;51.654;5.476;2022-09-09T05:53:30;6.13;;;1.70;;
72920;SDS011;61064;51.654;5.476;2022-09-09T05:56:06;11.10;;;1.90;;
72920;SDS011;61064;51.654;5.476;2022-09-09T05:58:35;7.28;;;1.80;;
72920;SDS011;61064;51.654;5.476;2022-09-09T06:03:31;9.35;;;1.90;;
72920;SDS011;61064;51.654;5.476;2022-09-09T06:06:00;8.93;;;1.77;;
72920;SDS011;61064;51.654;5.476;2022-09-09T06:08:31;10.02;;;1.77;;
72920;SDS011;61064;51.654;5.476;2022-09-09T06:11:01;8.70;;;2.13;;
72920;SDS011;61064;51.654;5.476;2022-09-09T06:13:31;9.02;;;1.80;;
72920;SDS011;61064;51.654;5.476;2022-09-09T06:15:56;8.20;;;1.80;;
72920;SDS011;61064;51.654;5.476;2022-09-09T06:18:25;10.13;;;1.73;;
72920;SDS011;61064;51.654;5.476;2022-09-09T06:20:55;10.77;;;1.73;;
72920;SDS011;61064;51.654;5.476;2022-09-09T06:23:31;12.55;;;1.88;;
72920;SDS011;61064;51.654;5.476;2022-09-09T06:26:09;8.00;;;1.73;;
72920;SDS011;61064;51.654;5.476;2022-09-09T06:28:37;10.87;;;2.00;;
72920;SDS011;61064;51.654;5.476;2022-09-09T06:31:04;11.30;;;1.90;;
72920;SDS011;61064;51.654;5.476;2022-09-09T06:33:35;8.40;;;2.10;;
72920;SDS011;61064;51.654;5.476;2022-09-09T06:36:04;7.65;;;1.92;;
72920;SDS011;61064;51.654;5.476;2022-09-09T06:38:30;14.65;;;2.00;;
72920;SDS011;61064;51.654;5.476;2022-09-09T06:40:57;11.93;;;2.00;;
72920;SDS011;61064;51.654;5.476;2022-09-09T06:43:25;7.20;;;1.52;;
72920;SDS011;61064;51.654;5.476;2022-09-09T06:46:00;10.38;;;1.75;;
72920;SDS011;61064;51.654;5.476;2022-09-09T06:48:30;10.40;;;1.73;;
72920;SDS011;61064;51.654;5.476;2022-09-09T06:51:06;9.77;;;1.90;;
72920;SDS011;61064;51.654;5.476;2022-09-09T06:53:37;8.18;;;1.40;;
72920;SDS011;61064;51.654;5.476;2022-09-09T06:58:35;10.98;;;1.63;;
72920;SDS011;61064;51.654;5.476;2022-09-09T07:01:04;8.48;;;1.65;;
72920;SDS011;61064;51.654;5.476;2022-09-09T07:03:31;8.27;;;1.70;;
72920;SDS011;61064;51.654;5.476;2022-09-09T07:05:56;10.77;;;1.70;;
72920;SDS011;61064;51.654;5.476;2022-09-09T07:08:25;11.68;;;1.65;;
72920;SDS011;61064;51.654;5.476;2022-09-09T07:10:52;12.17;;;1.50;;
72920;SDS011;61064;51.654;5.476;2022-09-09T07:13:26;11.07;;;1.92;;
72920;SDS011;61064;51.654;5.476;2022-09-09T07:15:52;12.63;;;1.63;;
72920;SDS011;61064;51.654;5.476;2022-09-09T07:18:21;12.00;;;1.65;;
72920;SDS011;61064;51.654;5.476;2022-09-09T07:20:55;10.18;;;2.10;;
72920;SDS011;61064;51.654;5.476;2022-09-09T07:23:22;7.63;;;1.43;;
72920;SDS011;61064;51.654;5.476;2022-09-09T07:25:48;10.63;;;1.77;;
72920;SDS011;61064;51.654;5.476;2022-09-09T07:28:13;9.43;;;1.63;;
72920;SDS011;61064;51.654;5.476;2022-09-09T07:30:39;9.25;;;1.50;;
72920;SDS011;61064;51.654;5.476;2022-09-09T07:33:05;10.68;;;1.60;;
72920;SDS011;61064;51.654;5.476;2022-09-09T07:35:31;6.97;;;1.30;;
72920;SDS011;61064;51.654;5.476;2022-09-09T07:37:56;8.43;;;1.38;;
72920;SDS011;61064;51.654;5.476;2022-09-09T07:40:23;13.60;;;1.50;;
72920;SDS011;61064;51.654;5.476;2022-09-09T07:42:49;8.23;;;1.40;;
72920;SDS011;61064;51.654;5.476;2022-09-09T07:45:15;13.52;;;2.15;;
72920;SDS011;61064;51.654;5.476;2022-09-09T07:47:40;9.10;;;1.40;;
72920;SDS011;61064;51.654;5.476;2022-09-09T07:50:09;9.80;;;1.45;;
72920;SDS011;61064;51.654;5.476;2022-09-09T07:52:42;11.63;;;1.98;;
72920;SDS011;61064;51.654;5.476;2022-09-09T07:55:10;15.60;;;1.60;;
72920;SDS011;61064;51.654;5.476;2022-09-09T07:57:35;11.85;;;1.73;;
72920;SDS011;61064;51.654;5.476;2022-09-09T08:00:02;9.37;;;1.50;;
72920;SDS011;61064;51.654;5.476;2022-09-09T08:02:29;9.63;;;1.85;;
72920;SDS011;61064;51.654;5.476;2022-09-09T08:04:54;9.47;;;1.60;;
72920;SDS011;61064;51.654;5.476;2022-09-09T08:07:21;9.52;;;1.60;;
72920;SDS011;61064;51.654;5.476;2022-09-09T08:09:47;9.35;;;1.33;;
72920;SDS011;61064;51.654;5.476;2022-09-09T08:12:12;10.63;;;1.33;;
72920;SDS011;61064;51.654;5.476;2022-09-09T08:14:38;8.93;;;1.30;;
72920;SDS011;61064;51.654;5.476;2022-09-09T08:17:05;8.50;;;1.40;;
72920;SDS011;61064;51.654;5.476;2022-09-09T08:19:30;8.83;;;1.20;;
72920;SDS011;61064;51.654;5.476;2022-09-09T08:21:58;9.65;;;1.50;;
72920;SDS011;61064;51.654;5.476;2022-09-09T08:24:26;7.90;;;1.20;;
72920;SDS011;61064;51.654;5.476;2022-09-09T08:26:52;10.93;;;1.43;;
72920;SDS011;61064;51.654;5.476;2022-09-09T08:29:18;10.68;;;1.40;;
72920;SDS011;61064;51.654;5.476;2022-09-09T08:34:11;10.43;;;1.50;;
72920;SDS011;61064;51.654;5.476;2022-09-09T08:36:38;9.93;;;1.70;;
72920;SDS011;61064;51.654;5.476;2022-09-09T08:39:09;8.20;;;1.40;;
72920;SDS011;61064;51.654;5.476;2022-09-09T08:55:47;7.43;;;1.10;;
72920;SDS011;61064;51.654;5.476;2022-09-09T09:12:18;7.70;;;1.40;;
72920;SDS011;61064;51.654;5.476;2022-09-09T09:14:46;10.13;;;1.40;;
72920;SDS011;61064;51.654;5.476;2022-09-09T09:17:14;8.75;;;1.23;;
72920;SDS011;61064;51.654;5.476;2022-09-09T09:19:44;9.87;;;1.50;;
72920;SDS011;61064;51.654;5.476;2022-09-09T09:27:36;7.88;;;1.50;;
72920;SDS011;61064;51.654;5.476;2022-09-09T09:30:26;7.65;;;1.50;;
72920;SDS011;61064;51.654;5.476;2022-09-09T09:38:32;9.32;;;1.40;;
72920;SDS011;61064;51.654;5.476;2022-09-09T09:40:59;8.07;;;1.42;;
72920;SDS011;61064;51.654;5.476;2022-09-09T09:43:52;8.43;;;1.30;;
72920;SDS011;61064;51.654;5.476;2022-09-09T09:46:19;10.63;;;1.47;;
72920;SDS011;61064;51.654;5.476;2022-09-09T09:49:01;13.43;;;1.90;;
72920;SDS011;61064;51.654;5.476;2022-09-09T09:51:27;10.32;;;1.52;;
72920;SDS011;61064;51.654;5.476;2022-09-09T09:54:02;8.85;;;1.20;;
72920;SDS011;61064;51.654;5.476;2022-09-09T09:56:49;9.25;;;1.42;;
72920;SDS011;61064;51.654;5.476;2022-09-09T09:59:34;7.80;;;1.43;;
72920;SDS011;61064;51.654;5.476;2022-09-09T10:04:38;13.00;;;1.40;;
72920;SDS011;61064;51.654;5.476;2022-09-09T10:07:10;7.55;;;1.10;;
72920;SDS011;61064;51.654;5.476;2022-09-09T10:09:51;10.70;;;1.60;;
72920;SDS011;61064;51.654;5.476;2022-09-09T10:12:24;8.20;;;1.40;;
72920;SDS011;61064;51.654;5.476;2022-09-09T10:15:26;7.45;;;1.50;;
72920;SDS011;61064;51.654;5.476;2022-09-09T10:18:21;11.45;;;1.50;;
72920;SDS011;61064;51.654;5.476;2022-09-09T10:21:06;9.98;;;1.50;;
72920;SDS011;61064;51.654;5.476;2022-09-09T10:40:28;9.77;;;1.77;;
72920;SDS011;61064;51.654;5.476;2022-09-09T10:46:11;9.00;;;1.60;;
72920;SDS011;61064;51.654;5.476;2022-09-09T10:49:13;8.73;;;1.80;;
72920;SDS011;61064;51.654;5.476;2022-09-09T10:52:08;9.93;;;1.73;;
72920;SDS011;61064;51.654;5.476;2022-09-09T11:00:17;8.10;;;1.43;;
72920;SDS011;61064;51.654;5.476;2022-09-09T11:02:47;8.00;;;1.88;;
72920;SDS011;61064;51.654;5.476;2022-09-09T11:05:28;6.75;;;1.30;;
72920;SDS011;61064;51.654;5.476;2022-09-09T11:08:18;8.18;;;1.70;;
72920;SDS011;61064;51.654;5.476;2022-09-09T11:16:48;6.13;;;1.35;;
72920;SDS011;61064;51.654;5.476;2022-09-09T11:19:37;8.55;;;1.50;;
72920;SDS011;61064;51.654;5.476;2022-09-09T11:22:06;9.82;;;1.92;;
72920;SDS011;61064;51.654;5.476;2022-09-09T11:24:50;7.17;;;1.70;;
72920;SDS011;61064;51.654;5.476;2022-09-09T11:29:50;8.75;;;1.73;;
72920;SDS011;61064;51.654;5.476;2022-09-09T11:34:58;9.45;;;1.63;;
72920;SDS011;61064;51.654;5.476;2022-09-09T11:37:47;6.87;;;1.50;;
72920;SDS011;61064;51.654;5.476;2022-09-09T11:40:27;7.85;;;1.70;;
72920;SDS011;61064;51.654;5.476;2022-09-09T11:45:34;8.77;;;1.60;;
72920;SDS011;61064;51.654;5.476;2022-09-09T11:48:01;6.28;;;1.33;;
72920;SDS011;61064;51.654;5.476;2022-09-09T11:50:29;6.03;;;1.70;;
72920;SDS011;61064;51.654;5.476;2022-09-09T11:53:04;7.18;;;1.52;;
72920;SDS011;61064;51.654;5.476;2022-09-09T11:55:35;8.02;;;1.73;;
72920;SDS011;61064;51.654;5.476;2022-09-09T12:00:40;7.30;;;1.75;;
72920;SDS011;61064;51.654;5.476;2022-09-09T12:03:31;10.67;;;1.67;;
72920;SDS011;61064;51.654;5.476;2022-09-09T12:08:44;8.35;;;1.63;;
72920;SDS011;61064;51.654;5.476;2022-09-09T12:11:23;6.10;;;1.42;;
72920;SDS011;61064;51.654;5.476;2022-09-09T12:13:57;8.73;;;1.70;;
72920;SDS011;61064;51.654;5.476;2022-09-09T12:16:34;6.73;;;1.40;;
72920;SDS011;61064;51.654;5.476;2022-09-09T12:21:44;12.93;;;1.90;;
72920;SDS011;61064;51.654;5.476;2022-09-09T12:24:28;6.43;;;1.40;;
72920;SDS011;61064;51.654;5.476;2022-09-09T12:27:15;10.40;;;1.80;;
72920;SDS011;61064;51.654;5.476;2022-09-09T12:29:53;7.03;;;1.60;;
72920;SDS011;61064;51.654;5.476;2022-09-09T12:32:34;9.93;;;1.52;;
72920;SDS011;61064;51.654;5.476;2022-09-09T12:37:52;8.13;;;1.90;;
72920;SDS011;61064;51.654;5.476;2022-09-09T12:40:32;6.27;;;1.40;;
72920;SDS011;61064;51.654;5.476;2022-09-09T12:43:00;6.95;;;1.50;;
72920;SDS011;61064;51.654;5.476;2022-09-09T12:45:28;7.78;;;1.50;;
72920;SDS011;61064;51.654;5.476;2022-09-09T12:48:14;6.30;;;1.42;;
72920;SDS011;61064;51.654;5.476;2022-09-09T12:50:44;7.13;;;1.45;;
72920;SDS011;61064;51.654;5.476;2022-09-09T12:55:48;8.80;;;1.65;;
72920;SDS011;61064;51.654;5.476;2022-09-09T12:58:17;7.68;;;1.35;;
72920;SDS011;61064;51.654;5.476;2022-09-09T13:00:54;7.38;;;1.25;;
72920;SDS011;61064;51.654;5.476;2022-09-09T13:03:24;6.88;;;1.17;;
72920;SDS011;61064;51.654;5.476;2022-09-09T13:05:53;6.50;;;1.23;;
72920;SDS011;61064;51.654;5.476;2022-09-09T13:08:23;7.15;;;1.33;;
72920;SDS011;61064;51.654;5.476;2022-09-09T13:13:35;8.52;;;1.30;;
72920;SDS011;61064;51.654;5.476;2022-09-09T13:16:03;10.00;;;1.50;;
72920;SDS011;61064;51.654;5.476;2022-09-09T13:18:33;8.53;;;1.47;;
72920;SDS011;61064;51.654;5.476;2022-09-09T13:21:00;8.55;;;1.50;;
72920;SDS011;61064;51.654;5.476;2022-09-09T13:23:30;8.30;;;1.48;;
72920;SDS011;61064;51.654;5.476;2022-09-09T13:26:02;8.35;;;1.33;;
72920;SDS011;61064;51.654;5.476;2022-09-09T13:28:46;7.25;;;1.40;;
72920;SDS011;61064;51.654;5.476;2022-09-09T13:33:48;8.05;;;1.75;;
72920;SDS011;61064;51.654;5.476;2022-09-09T13:36:13;6.60;;;1.20;;
72920;SDS011;61064;51.654;5.476;2022-09-09T13:41:50;7.82;;;1.35;;
72920;SDS011;61064;51.654;5.476;2022-09-09T13:44:23;7.30;;;1.20;;
72920;SDS011;61064;51.654;5.476;2022-09-09T13:49:27;6.60;;;1.30;;
72920;SDS011;61064;51.654;5.476;2022-09-09T13:52:05;8.27;;;1.50;;
72920;SDS011;61064;51.654;5.476;2022-09-09T13:54:35;7.38;;;1.40;;
72920;SDS011;61064;51.654;5.476;2022-09-09T13:57:00;7.93;;;1.43;;
72920;SDS011;61064;51.654;5.476;2022-09-09T13:59:26;7.60;;;1.33;;
72920;SDS011;61064;51.654;5.476;2022-09-09T14:01:52;6.27;;;1.10;;
72920;SDS011;61064;51.654;5.476;2022-09-09T14:04:18;6.75;;;1.20;;
72920;SDS011;61064;51.654;5.476;2022-09-09T14:06:46;7.60;;;1.33;;
72920;SDS011;61064;51.654;5.476;2022-09-09T14:09:18;6.27;;;1.13;;
72920;SDS011;61064;51.654;5.476;2022-09-09T14:11:44;7.70;;;1.30;;
72920;SDS011;61064;51.654;5.476;2022-09-09T14:14:12;9.27;;;1.33;;
72920;SDS011;61064;51.654;5.476;2022-09-09T14:16:38;9.47;;;1.43;;
72920;SDS011;61064;51.654;5.476;2022-09-09T14:19:03;7.75;;;1.40;;
72920;SDS011;61064;51.654;5.476;2022-09-09T14:21:29;9.67;;;1.20;;
72920;SDS011;61064;51.654;5.476;2022-09-09T14:23:54;6.70;;;0.93;;
72920;SDS011;61064;51.654;5.476;2022-09-09T14:26:22;7.50;;;1.13;;
72920;SDS011;61064;51.654;5.476;2022-09-09T14:28:48;7.07;;;1.08;;
72920;SDS011;61064;51.654;5.476;2022-09-09T14:31:15;8.48;;;1.17;;
72920;SDS011;61064;51.654;5.476;2022-09-09T14:33:42;7.78;;;1.05;;
72920;SDS011;61064;51.654;5.476;2022-09-09T14:36:08;5.60;;;1.00;;
72920;SDS011;61064;51.654;5.476;2022-09-09T14:38:35;7.13;;;1.13;;
72920;SDS011;61064;51.654;5.476;2022-09-09T14:41:09;4.88;;;1.00;;
72920;SDS011;61064;51.654;5.476;2022-09-09T14:43:37;5.47;;;1.00;;
72920;SDS011;61064;51.654;5.476;2022-09-09T14:46:06;5.30;;;1.10;;
72920;SDS011;61064;51.654;5.476;2022-09-09T14:48:33;5.97;;;0.90;;
72920;SDS011;61064;51.654;5.476;2022-09-09T14:51:07;4.85;;;0.95;;
72920;SDS011;61064;51.654;5.476;2022-09-09T14:53:33;7.13;;;0.93;;
72920;SDS011;61064;51.654;5.476;2022-09-09T14:56:06;5.30;;;1.00;;
72920;SDS011;61064;51.654;5.476;2022-09-09T14:58:42;5.80;;;0.93;;
72920;SDS011;61064;51.654;5.476;2022-09-09T15:01:09;5.22;;;0.95;;
72920;SDS011;61064;51.654;5.476;2022-09-09T15:03:36;4.60;;;1.00;;
72920;SDS011;61064;51.654;5.476;2022-09-09T15:06:07;5.70;;;1.10;;
72920;SDS011;61064;51.654;5.476;2022-09-09T15:08:37;6.70;;;1.20;;
72920;SDS011;61064;51.654;5.476;2022-09-09T15:11:05;5.93;;;0.93;;
72920;SDS011;61064;51.654;5.476;2022-09-09T15:13:35;4.85;;;0.90;;
72920;SDS011;61064;51.654;5.476;2022-09-09T15:16:15;5.05;;;1.10;;
72920;SDS011;61064;51.654;5.476;2022-09-09T15:18:43;7.00;;;1.10;;
72920;SDS011;61064;51.654;5.476;2022-09-09T15:21:13;5.17;;;0.97;;
72920;SDS011;61064;51.654;5.476;2022-09-09T15:23:40;5.15;;;1.10;;
72920;SDS011;61064;51.654;5.476;2022-09-09T15:26:06;6.60;;;1.05;;
72920;SDS011;61064;51.654;5.476;2022-09-09T15:28:33;6.60;;;1.10;;
72920;SDS011;61064;51.654;5.476;2022-09-09T15:31:09;5.80;;;1.00;;
72920;SDS011;61064;51.654;5.476;2022-09-09T15:33:39;4.20;;;1.00;;
72920;SDS011;61064;51.654;5.476;2022-09-09T15:36:24;6.20;;;0.90;;
72920;SDS011;61064;51.654;5.476;2022-09-09T15:38:51;4.35;;;0.93;;
72920;SDS011;61064;51.654;5.476;2022-09-09T15:41:21;3.60;;;0.80;;
72920;SDS011;61064;51.654;5.476;2022-09-09T15:43:50;4.40;;;1.00;;
72920;SDS011;61064;51.654;5.476;2022-09-09T15:48:45;5.13;;;1.00;;
72920;SDS011;61064;51.654;5.476;2022-09-09T15:51:11;5.45;;;1.10;;
72920;SDS011;61064;51.654;5.476;2022-09-09T15:53:37;4.72;;;1.35;;
72920;SDS011;61064;51.654;5.476;2022-09-09T15:56:04;5.03;;;1.37;;
72920;SDS011;61064;51.654;5.476;2022-09-09T15:58:31;6.90;;;1.90;;
72920;SDS011;61064;51.654;5.476;2022-09-09T16:01:03;5.18;;;1.23;;
72920;SDS011;61064;51.654;5.476;2022-09-09T16:03:40;3.55;;;0.90;;
72920;SDS011;61064;51.654;5.476;2022-09-09T16:06:07;5.43;;;1.15;;
72920;SDS011;61064;51.654;5.476;2022-09-09T16:13:36;5.18;;;1.20;;
72920;SDS011;61064;51.654;5.476;2022-09-09T16:16:05;4.97;;;1.10;;
72920;SDS011;61064;51.654;5.476;2022-09-09T16:18:44;4.78;;;1.00;;
72920;SDS011;61064;51.654;5.476;2022-09-09T16:21:13;3.85;;;0.90;;
72920;SDS011;61064;51.654;5.476;2022-09-09T16:23:40;4.10;;;1.10;;
72920;SDS011;61064;51.654;5.476;2022-09-09T16:26:06;5.90;;;1.20;;
72920;SDS011;61064;51.654;5.476;2022-09-09T16:28:31;3.90;;;1.00;;
72920;SDS011;61064;51.654;5.476;2022-09-09T16:30:56;4.83;;;1.13;;
72920;SDS011;61064;51.654;5.476;2022-09-09T16:33:23;5.50;;;1.33;;
72920;SDS011;61064;51.654;5.476;2022-09-09T16:35:50;5.55;;;1.25;;
72920;SDS011;61064;51.654;5.476;2022-09-09T16:38:16;6.57;;;1.50;;
72920;SDS011;61064;51.654;5.476;2022-09-09T16:40:42;6.50;;;1.57;;
72920;SDS011;61064;51.654;5.476;2022-09-09T16:43:07;6.13;;;1.75;;
72920;SDS011;61064;51.654;5.476;2022-09-09T16:45:40;7.30;;;1.77;;
72920;SDS011;61064;51.654;5.476;2022-09-09T16:48:10;8.53;;;2.00;;
72920;SDS011;61064;51.654;5.476;2022-09-09T16:50:36;6.32;;;1.50;;
72920;SDS011;61064;51.654;5.476;2022-09-09T16:53:02;6.72;;;1.80;;
72920;SDS011;61064;51.654;5.476;2022-09-09T16:55:31;6.57;;;1.90;;
72920;SDS011;61064;51.654;5.476;2022-09-09T16:57:57;6.13;;;1.73;;
72920;SDS011;61064;51.654;5.476;2022-09-09T17:00:22;5.27;;;1.90;;
72920;SDS011;61064;51.654;5.476;2022-09-09T17:02:48;6.43;;;1.92;;
72920;SDS011;61064;51.654;5.476;2022-09-09T17:05:13;5.77;;;2.00;;
72920;SDS011;61064;51.654;5.476;2022-09-09T17:07:39;5.72;;;2.13;;
72920;SDS011;61064;51.654;5.476;2022-09-09T17:10:06;5.67;;;2.30;;
72920;SDS011;61064;51.654;5.476;2022-09-09T17:12:32;6.72;;;2.17;;
72920;SDS011;61064;51.654;5.476;2022-09-09T17:14:57;7.82;;;2.50;;
72920;SDS011;61064;51.654;5.476;2022-09-09T17:17:24;6.73;;;2.03;;
72920;SDS011;61064;51.654;5.476;2022-09-09T17:19:51;5.78;;;2.20;;
72920;SDS011;61064;51.654;5.476;2022-09-09T17:22:17;6.03;;;2.17;;
72920;SDS011;61064;51.654;5.476;2022-09-09T17:24:43;9.30;;;2.20;;
72920;SDS011;61064;51.654;5.476;2022-09-09T17:27:09;7.07;;;2.20;;
72920;SDS011;61064;51.654;5.476;2022-09-09T17:29:34;6.93;;;1.97;;
72920;SDS011;61064;51.654;5.476;2022-09-09T17:32:01;5.80;;;2.00;;
72920;SDS011;61064;51.654;5.476;2022-09-09T17:34:27;7.18;;;2.08;;
72920;SDS011;61064;51.654;5.476;2022-09-09T17:36:52;8.47;;;2.20;;
72920;SDS011;61064;51.654;5.476;2022-09-09T17:39:17;6.27;;;2.03;;
72920;SDS011;61064;51.654;5.476;2022-09-09T17:41:43;7.47;;;2.23;;
72920;SDS011;61064;51.654;5.476;2022-09-09T17:44:08;5.65;;;1.77;;
72920;SDS011;61064;51.654;5.476;2022-09-09T17:46:35;6.77;;;2.00;;
72920;SDS011;61064;51.654;5.476;2022-09-09T17:49:07;5.95;;;1.80;;
72920;SDS011;61064;51.654;5.476;2022-09-09T17:51:34;7.53;;;2.03;;
72920;SDS011;61064;51.654;5.476;2022-09-09T17:54:02;7.93;;;2.10;;